Time;durP1;ratioP1;P1;durP2;ratioP2;P2;SDS_P1;SDS_P2;PMS_P1;PMS_P2;Temp;Humidity;BMP_temperature;BMP_pressure;BME280_temperature;BME280_humidity;BME280_pressure;Samples;Min_cycle;Max_cycle;Signal;HPM_P1;HPM_P2
2023/04/30 00:03:45;;;;;;;;;;;;;;;8.61;77.47;102495.41;20764595;28;19933;-56
2023/04/30 00:14:06;;;;;;;;;;;;;;;8.51;77.44;102501.38;20738704;28;19957;-53
2023/04/30 00:24:28;;;;;;;;;;;;;;;8.39;78.22;102497.88;20751437;28;19983;-58
2023/04/30 00:34:49;;;;;;;;;;;;;;;8.30;78.81;102514.16;20759193;28;20344;-56
2023/04/30 00:45:11;;;;;;;;;;;;;;;8.24;78.50;102515.81;20740351;28;20360;-56
2023/04/30 00:55:32;;;;;;;;;;;;;;;8.15;78.17;102516.56;20749583;28;19925;-56
2023/04/30 01:05:53;;;;;;;;;;;;;;;8.12;77.99;102529.47;20734732;28;20680;-55
2023/04/30 01:16:23;;;;;;;;;;;;;;;8.03;77.97;102535.41;20741351;28;20008;-55
2023/04/30 01:27:03;;;;;;;;;;;;;;;7.90;78.93;102532.72;20747150;28;19926;-55
2023/04/30 01:37:27;;;;;;;;;;;;;;;7.88;78.42;102531.84;20758719;28;19933;-56
2023/04/30 01:47:56;;;;;;;;;;;;;;;7.77;78.59;102520.56;20751812;28;19926;-56
2023/04/30 01:58:21;;;;;;;;;;;;;;;7.67;79.18;102534.25;20759714;28;20020;-56
2023/04/30 02:08:42;;;;;;;;;;;;;;;7.63;80.03;102530.78;20731149;28;19971;-55
2023/04/30 02:19:04;;;;;;;;;;;;;;;7.51;79.76;102553.81;20746301;28;19929;-56
2023/04/30 02:29:25;;;;;;;;;;;;;;;7.42;80.65;102547.69;20754412;28;19979;-56
2023/04/30 02:39:47;;;;;;;;;;;;;;;7.38;80.50;102566.56;20754008;28;20227;-55
2023/04/30 02:50:08;;;;;;;;;;;;;;;7.28;80.22;102560.44;20757497;28;19960;-56
2023/04/30 03:00:30;;;;;;;;;;;;;;;7.12;80.15;102550.81;20748166;28;19983;-55
2023/04/30 03:10:51;;;;;;;;;;;;;;;7.05;79.73;102556.72;20750445;28;19929;-56
2023/04/30 03:21:12;;;;;;;;;;;;;;;7.02;79.60;102567.84;20769690;28;20091;-56
2023/04/30 03:31:34;;;;;;;;;;;;;;;6.93;80.48;102566.88;20747371;28;20365;-55
2023/04/30 03:41:55;;;;;;;;;;;;;;;6.85;80.21;102564.19;20765387;28;19931;-56
2023/04/30 03:52:17;;;;;;;;;;;;;;;6.80;80.45;102565.84;20765389;28;19975;-55
2023/04/30 04:02:39;;;;;;;;;;;;;;;6.81;80.76;102570.13;20749389;28;19952;-56
2023/04/30 04:13:00;;;;;;;;;;;;;;;6.79;80.56;102574.38;20749238;28;19932;-55
2023/04/30 04:23:22;;;;;;;;;;;;;;;6.74;82.33;102578.63;20742258;28;19926;-55
2023/04/30 04:33:43;;;;;;;;;;;;;;;6.72;81.46;102585.44;20732598;28;20340;-54
2023/04/30 04:44:36;;;;;;;;;;;;;;;6.74;81.98;102601.78;20734535;28;19933;-55
2023/04/30 04:54:57;;;;;;;;;;;;;;;6.80;80.82;102611.28;20741000;28;19925;-56
2023/04/30 05:05:19;;;;;;;;;;;;;;;6.88;81.11;102623.44;20738710;28;20478;-54
2023/04/30 05:15:40;;;;;;;;;;;;;;;6.98;81.86;102633.00;20748028;28;20388;-56
2023/04/30 05:26:02;;;;;;;;;;;;;;;7.08;81.57;102645.16;20732412;28;20322;-55
2023/04/30 05:36:24;;;;;;;;;;;;;;;7.24;82.12;102645.34;20743428;28;19933;-57
2023/04/30 05:46:46;;;;;;;;;;;;;;;7.47;81.65;102659.38;20750280;28;19929;-54
2023/04/30 05:57:07;;;;;;;;;;;;;;;7.60;81.66;102659.53;20738367;28;19925;-54
2023/04/30 06:07:29;;;;;;;;;;;;;;;7.80;80.50;102659.78;20748611;28;19933;-55
2023/04/30 06:17:51;;;;;;;;;;;;;;;8.05;78.49;102651.44;20741432;28;19933;-54
2023/04/30 06:28:12;;;;;;;;;;;;;;;8.38;78.27;102651.78;20747531;28;19932;-57
2023/04/30 06:38:33;;;;;;;;;;;;;;;8.69;76.64;102658.03;20755359;28;19929;-54
2023/04/30 06:48:55;;;;;;;;;;;;;;;9.06;76.34;102666.00;20754484;28;19925;-55
2023/04/30 06:59:16;;;;;;;;;;;;;;;9.37;74.04;102655.84;20754624;28;20396;-54
2023/04/30 07:09:38;;;;;;;;;;;;;;;9.59;74.81;102657.66;20757211;28;19925;-55
2023/04/30 07:19:59;;;;;;;;;;;;;;;9.94;72.55;102659.44;20757119;28;20532;-53
2023/04/30 07:30:21;;;;;;;;;;;;;;;10.07;70.94;102650.03;20752567;28;19933;-55
2023/04/30 07:40:45;;;;;;;;;;;;;;;10.22;70.07;102641.44;20755198;28;20353;-55
2023/04/30 07:51:06;;;;;;;;;;;;;;;10.32;69.78;102649.22;20758876;28;20460;-55
2023/04/30 08:01:28;;;;;;;;;;;;;;;10.27;70.38;102648.34;20748301;28;20384;-54
2023/04/30 08:11:49;;;;;;;;;;;;;;;10.40;69.30;102660.41;20752379;28;19929;-55
2023/04/30 08:22:11;;;;;;;;;;;;;;;10.50;69.65;102664.72;20744997;28;19987;-55
2023/04/30 08:32:36;;;;;;;;;;;;;;;10.81;70.33;102674.19;20754928;28;19932;-56
2023/04/30 08:43:04;;;;;;;;;;;;;;;11.03;67.54;102672.44;20738579;28;19925;-56
2023/04/30 08:53:25;;;;;;;;;;;;;;;11.22;68.87;102663.75;20749732;28;19925;-55
2023/04/30 09:03:47;;;;;;;;;;;;;;;11.31;66.73;102658.53;20734931;28;19929;-57
2023/04/30 09:14:09;;;;;;;;;;;;;;;11.56;67.29;102654.09;20738873;28;20099;-54
2023/04/30 09:24:44;;;;;;;;;;;;;;;11.66;65.92;102661.00;20742976;28;19929;-56
2023/04/30 09:35:05;;;;;;;;;;;;;;;11.93;64.87;102642.69;20745140;28;20789;-61
2023/04/30 09:45:37;;;;;;;;;;;;;;;12.24;66.63;102644.22;20741526;28;19929;-55
2023/04/30 09:56:01;;;;;;;;;;;;;;;12.50;65.98;102639.66;20767886;28;19941;-55
2023/04/30 10:06:23;;;;;;;;;;;;;;;12.53;63.36;102634.44;20744883;28;19949;-56
2023/04/30 10:16:48;;;;;;;;;;;;;;;12.63;66.14;102623.09;20751079;28;20528;-57
2023/04/30 10:27:09;;;;;;;;;;;;;;;12.94;65.41;102621.91;20758580;28;19925;-56
2023/04/30 10:37:42;;;;;;;;;;;;;;;13.10;64.35;102623.50;20728334;28;19930;-60
2023/04/30 10:48:05;;;;;;;;;;;;;;;13.35;65.92;102605.00;20734043;28;19964;-62
2023/04/30 10:58:30;;;;;;;;;;;;;;;13.61;65.72;102589.88;20727554;28;19929;-54
2023/04/30 11:08:51;;;;;;;;;;;;;;;14.08;64.25;102582.25;20737183;28;20363;-54
2023/04/30 11:19:13;;;;;;;;;;;;;;;14.36;64.71;102570.47;20738876;28;19925;-56
2023/04/30 11:29:35;;;;;;;;;;;;;;;14.66;64.30;102577.75;20739673;28;19929;-56
2023/04/30 11:39:58;;;;;;;;;;;;;;;14.85;60.27;102558.25;20725847;28;19929;-58
2023/04/30 11:50:26;;;;;;;;;;;;;;;15.09;62.56;102542.13;20748674;28;20027;-55
2023/04/30 12:00:49;;;;;;;;;;;;;;;15.38;63.81;102527.59;20722229;28;20422;-59
2023/04/30 12:11:20;;;;;;;;;;;;;;;15.71;63.20;102526.84;20729919;28;19975;-58
2023/04/30 12:21:46;;;;;;;;;;;;;;;15.77;61.45;102516.22;20741022;28;19929;-57
2023/04/30 12:32:07;;;;;;;;;;;;;;;15.72;63.79;102502.44;20724864;28;19972;-56
2023/04/30 12:42:33;;;;;;;;;;;;;;;15.79;63.01;102498.78;20732664;28;20361;-57
2023/04/30 12:52:54;;;;;;;;;;;;;;;15.86;63.30;102492.50;20731796;28;19934;-57
2023/04/30 13:03:22;;;;;;;;;;;;;;;16.06;63.52;102472.84;20741613;28;20295;-56
2023/04/30 13:13:43;;;;;;;;;;;;;;;16.13;63.23;102465.72;20727420;28;19936;-56
2023/04/30 13:24:05;;;;;;;;;;;;;;;16.35;64.63;102445.94;20727860;28;19980;-57
2023/04/30 13:34:27;;;;;;;;;;;;;;;16.36;64.48;102434.56;20727326;28;19980;-56
2023/04/30 13:44:48;;;;;;;;;;;;;;;16.43;65.41;102425.66;20749151;28;19953;-57
2023/04/30 13:55:10;;;;;;;;;;;;;;;16.59;63.92;102420.91;20754550;28;20392;-53
2023/04/30 14:05:31;;;;;;;;;;;;;;;16.48;64.46;102397.66;20759104;28;19937;-56
2023/04/30 14:15:54;;;;;;;;;;;;;;;16.62;64.91;102390.28;20747002;28;19979;-55
2023/04/30 14:26:16;;;;;;;;;;;;;;;16.55;64.81;102372.22;20731981;28;19925;-55
2023/04/30 14:36:38;;;;;;;;;;;;;;;16.53;63.20;102367.03;20728129;28;19932;-56
2023/04/30 14:47:00;;;;;;;;;;;;;;;16.59;64.00;102359.00;20727879;28;19933;-55
2023/04/30 14:57:22;;;;;;;;;;;;;;;16.66;63.10;102344.00;20730584;28;19933;-55
2023/04/30 15:07:43;;;;;;;;;;;;;;;16.71;63.51;102337.72;20723278;28;19941;-54
2023/04/30 15:18:06;;;;;;;;;;;;;;;16.79;61.15;102320.03;20744357;28;19940;-56
2023/04/30 15:28:27;;;;;;;;;;;;;;;16.86;62.37;102331.16;20729567;28;19929;-58
2023/04/30 15:38:49;;;;;;;;;;;;;;;16.89;60.84;102325.81;20730687;28;19929;-53
2023/04/30 15:49:10;;;;;;;;;;;;;;;17.01;62.86;102321.03;20728005;28;20624;-53
2023/04/30 15:59:32;;;;;;;;;;;;;;;17.05;59.81;102327.03;20724391;28;20335;-56
2023/04/30 16:09:53;;;;;;;;;;;;;;;17.13;61.92;102303.22;20716236;28;19930;-57
2023/04/30 16:20:15;;;;;;;;;;;;;;;17.25;61.69;102301.06;20710504;28;19989;-56
2023/04/30 16:30:36;;;;;;;;;;;;;;;17.35;59.79;102299.84;20720407;28;19980;-56
2023/04/30 16:40:58;;;;;;;;;;;;;;;17.46;60.75;102289.88;20720794;28;20383;-57
2023/04/30 16:51:19;;;;;;;;;;;;;;;17.48;59.82;102274.13;20736001;28;20016;-55
2023/04/30 17:01:41;;;;;;;;;;;;;;;17.40;60.11;102268.25;20720457;28;19932;-55
2023/04/30 17:12:04;;;;;;;;;;;;;;;17.10;61.05;102271.03;20714221;28;19932;-56
2023/04/30 17:22:25;;;;;;;;;;;;;;;16.86;61.43;102274.50;20721425;28;20352;-57
2023/04/30 17:32:48;;;;;;;;;;;;;;;16.70;62.81;102272.41;20754887;28;21237;-56
2023/04/30 17:43:10;;;;;;;;;;;;;;;16.45;63.21;102256.63;20740989;28;19930;-55
2023/04/30 17:53:31;;;;;;;;;;;;;;;16.18;62.38;102257.47;20754140;28;19929;-57
2023/04/30 18:03:54;;;;;;;;;;;;;;;15.91;63.08;102258.28;20729293;28;19932;-56
2023/04/30 18:14:15;;;;;;;;;;;;;;;15.62;64.13;102255.66;20757990;28;19926;-54
2023/04/30 18:24:37;;;;;;;;;;;;;;;15.39;64.35;102253.63;20749925;28;19932;-55
2023/04/30 18:34:58;;;;;;;;;;;;;;;15.07;64.35;102249.25;20758119;28;19999;-55
2023/04/30 18:45:20;;;;;;;;;;;;;;;14.81;65.72;102249.06;20759937;28;20001;-54
2023/04/30 18:55:45;;;;;;;;;;;;;;;14.55;64.97;102251.44;20763647;28;19979;-54
2023/04/30 19:06:06;;;;;;;;;;;;;;;14.24;64.32;102253.00;20743603;28;19965;-55
2023/04/30 19:16:28;;;;;;;;;;;;;;;14.00;65.51;102250.91;20762242;28;19940;-56
2023/04/30 19:26:50;;;;;;;;;;;;;;;13.74;65.22;102269.66;20751957;28;19932;-55
2023/04/30 19:37:12;;;;;;;;;;;;;;;13.58;64.94;102277.81;20731142;28;19960;-55
2023/04/30 19:47:33;;;;;;;;;;;;;;;13.33;64.41;102279.16;20747300;28;20038;-54
2023/04/30 19:57:54;;;;;;;;;;;;;;;13.13;66.11;102281.25;20729543;28;19925;-55
2023/04/30 20:08:16;;;;;;;;;;;;;;;12.96;66.07;102266.75;20737998;28;19969;-55
2023/04/30 20:18:38;;;;;;;;;;;;;;;12.77;66.78;102264.47;20738519;28;19933;-54
2023/04/30 20:28:59;;;;;;;;;;;;;;;12.55;64.87;102269.16;20740879;28;19992;-55
2023/04/30 20:39:21;;;;;;;;;;;;;;;12.45;66.25;102266.72;20738002;28;19956;-55
2023/04/30 20:49:42;;;;;;;;;;;;;;;12.28;65.35;102264.34;20738519;28;19932;-55
2023/04/30 21:00:05;;;;;;;;;;;;;;;12.11;65.86;102259.38;20732496;28;20049;-54
2023/04/30 21:10:33;;;;;;;;;;;;;;;12.05;65.10;102237.84;20740151;28;19943;-55
2023/04/30 21:21:00;;;;;;;;;;;;;;;11.88;66.02;102232.03;20734826;28;19926;-55
2023/04/30 21:31:22;;;;;;;;;;;;;;;11.70;65.77;102227.06;20737810;28;19933;-56
2023/04/30 21:41:44;;;;;;;;;;;;;;;11.57;66.03;102223.75;20743931;28;20351;-55
2023/04/30 21:52:07;;;;;;;;;;;;;;;11.38;66.82;102217.03;20722646;28;19930;-56
2023/04/30 22:02:28;;;;;;;;;;;;;;;11.30;67.17;102212.81;20766893;28;19999;-54
2023/04/30 22:12:50;;;;;;;;;;;;;;;11.23;67.65;102195.59;20759269;28;19936;-53
2023/04/30 22:23:11;;;;;;;;;;;;;;;11.10;67.73;102177.59;20745879;28;20001;-55
2023/04/30 22:33:36;;;;;;;;;;;;;;;10.99;68.13;102179.44;20772630;28;19929;-54
2023/04/30 22:43:58;;;;;;;;;;;;;;;10.85;68.48;102165.78;20752081;28;20448;-55
2023/04/30 22:54:19;;;;;;;;;;;;;;;10.76;68.98;102163.28;20759687;28;19980;-55
2023/04/30 23:04:40;;;;;;;;;;;;;;;10.69;69.03;102153.00;20755474;28;19925;-56
2023/04/30 23:15:02;;;;;;;;;;;;;;;10.67;69.54;102140.06;20754559;28;20377;-55
2023/04/30 23:25:24;;;;;;;;;;;;;;;10.61;69.25;102140.13;20773410;28;20237;-54
2023/04/30 23:35:46;;;;;;;;;;;;;;;10.49;69.81;102132.47;20730003;28;19929;-55
2023/04/30 23:46:07;;;;;;;;;;;;;;;10.38;70.45;102113.59;20742980;28;20435;-55
2023/04/30 23:56:29;;;;;;;;;;;;;;;10.31;70.34;102104.13;20757303;28;20036;-55
